sensor_id;sensor_type;location;lat;lon;timestamp;P1;P4;P2;P0;N10;N4;N25;N1;N05;TS
84733;SPS30;74957;48.082;17.260;2024-02-21T00:00:55;2.436;;2.166;2.166;;;;;;
84733;SPS30;74957;48.082;17.260;2024-02-21T00:05:50;5.999;;5.333;4.814;;;;;;
84733;SPS30;74957;48.082;17.260;2024-02-21T00:10:51;2.576;;2.29;2.117;;;;;;
84733;SPS30;74957;48.082;17.260;2024-02-21T00:15:54;5.073;;4.51;4.164;;;;;;
84733;SPS30;74957;48.082;17.260;2024-02-21T00:20:52;4.212;;3.744;3.225;;;;;;
84733;SPS30;74957;48.082;17.260;2024-02-21T00:25:52;4.603;;4.092;4.092;;;;;;
84733;SPS30;74957;48.082;17.260;2024-02-21T00:30:56;4.468;;3.972;3.972;;;;;;
84733;SPS30;74957;48.082;17.260;2024-02-21T00:35:51;4.321;;3.841;3.322;;;;;;
84733;SPS30;74957;48.082;17.260;2024-02-21T00:40:56;4.488;;3.99;3.297;;;;;;
84733;SPS30;74957;48.082;17.260;2024-02-21T00:45:52;4.115;;3.658;2.792;;;;;;
84733;SPS30;74957;48.082;17.260;2024-02-21T00:50:50;6.59;;5.858;4.645;;;;;;
84733;SPS30;74957;48.082;17.260;2024-02-21T00:55:52;5.955;;5.294;4.428;;;;;;
84733;SPS30;74957;48.082;17.260;2024-02-21T01:00:56;4.314;;3.835;3.489;;;;;;
84733;SPS30;74957;48.082;17.260;2024-02-21T01:05:51;4.066;;3.615;3.442;;;;;;
84733;SPS30;74957;48.082;17.260;2024-02-21T01:10:50;6.124;;5.444;4.405;;;;;;
84733;SPS30;74957;48.082;17.260;2024-02-21T01:15:53;3.524;;3.133;2.96;;;;;;
84733;SPS30;74957;48.082;17.260;2024-02-21T01:20:50;2.576;;2.29;2.117;;;;;;
84733;SPS30;74957;48.082;17.260;2024-02-21T01:25:57;7.034;;6.253;4.694;;;;;;
84733;SPS30;74957;48.082;17.260;2024-02-21T01:30:56;5.041;;4.481;4.308;;;;;;
84733;SPS30;74957;48.082;17.260;2024-02-21T01:35:53;9.85;;8.756;7.197;;;;;;
84733;SPS30;74957;48.082;17.260;2024-02-21T01:40:56;5.556;;4.939;4.766;;;;;;
84733;SPS30;74957;48.082;17.260;2024-02-21T01:45:55;8.588;;7.634;5.728;;;;;;
84733;SPS30;74957;48.082;17.260;2024-02-21T01:50:54;5.43;;4.827;4.308;;;;;;
84733;SPS30;74957;48.082;17.260;2024-02-21T01:55:58;6.931;;6.161;5.295;;;;;;
84733;SPS30;74957;48.082;17.260;2024-02-21T02:00:55;6.069;;5.395;4.356;;;;;;
84733;SPS30;74957;48.082;17.260;2024-02-21T02:05:50;5.61;;4.987;4.814;;;;;;
84733;SPS30;74957;48.082;17.260;2024-02-21T02:10:51;5.918;;5.261;3.875;;;;;;
84733;SPS30;74957;48.082;17.260;2024-02-21T02:15:51;6.676;;5.935;4.549;;;;;;
84733;SPS30;74957;48.082;17.260;2024-02-21T02:20:50;5.533;;4.919;3.706;;;;;;
84733;SPS30;74957;48.082;17.260;2024-02-21T02:25:51;11.496;;4.673;4.5;;;;;;
84733;SPS30;74957;48.082;17.260;2024-02-21T02:30:55;6.368;;5.661;5.488;;;;;;
84733;SPS30;74957;48.082;17.260;2024-02-21T02:35:54;5.112;;4.544;3.851;;;;;;
84733;SPS30;74957;48.082;17.260;2024-02-21T02:40:57;7.835;;6.965;6.619;;;;;;
84733;SPS30;74957;48.082;17.260;2024-02-21T02:45:55;7.412;;6.589;5.03;;;;;;
84733;SPS30;74957;48.082;17.260;2024-02-21T02:50:51;4.825;;4.289;4.116;;;;;;
84733;SPS30;74957;48.082;17.260;2024-02-21T02:55:52;7.348;;6.532;6.186;;;;;;
84733;SPS30;74957;48.082;17.260;2024-02-21T03:00:53;4.992;;4.438;4.092;;;;;;
84733;SPS30;74957;48.082;17.260;2024-02-21T03:05:54;6.259;;5.564;5.391;;;;;;
84733;SPS30;74957;48.082;17.260;2024-02-21T03:10:52;5.599;;4.977;4.284;;;;;;
84733;SPS30;74957;48.082;17.260;2024-02-21T03:15:58;6.681;;5.939;4.38;;;;;;
84733;SPS30;74957;48.082;17.260;2024-02-21T03:20:55;5.295;;4.707;4.188;;;;;;
84733;SPS30;74957;48.082;17.260;2024-02-21T03:25:56;4.768;;4.239;3.2;;;;;;
84733;SPS30;74957;48.082;17.260;2024-02-21T03:30:51;3.936;;3.499;3.153;;;;;;
84733;SPS30;74957;48.082;17.260;2024-02-21T03:35:49;6.547;;5.82;5.127;;;;;;
84733;SPS30;74957;48.082;17.260;2024-02-21T03:40:51;3.476;;3.09;2.744;;;;;;
84733;SPS30;74957;48.082;17.260;2024-02-21T03:45:56;6.222;;5.531;4.838;;;;;;
84733;SPS30;74957;48.082;17.260;2024-02-21T03:50:54;6.427;;5.713;5.367;;;;;;
84733;SPS30;74957;48.082;17.260;2024-02-21T03:55:51;4.932;;4.384;3.345;;;;;;
84733;SPS30;74957;48.082;17.260;2024-02-21T04:00:53;4.498;;3.999;2.96;;;;;;
84733;SPS30;74957;48.082;17.260;2024-02-21T04:05:52;6.374;;5.666;4.453;;;;;;
84733;SPS30;74957;48.082;17.260;2024-02-21T04:10:51;8.172;;7.264;5.705;;;;;;
84733;SPS30;74957;48.082;17.260;2024-02-21T04:15:51;5.825;;5.178;4.139;;;;;;
84733;SPS30;74957;48.082;17.260;2024-02-21T04:20:57;6.373;;5.665;5.319;;;;;;
84733;SPS30;74957;48.082;17.260;2024-02-21T04:25:49;7.088;;6.301;5.608;;;;;;
84733;SPS30;74957;48.082;17.260;2024-02-21T04:30:52;6.715;;5.969;5.103;;;;;;
84733;SPS30;74957;48.082;17.260;2024-02-21T04:35:51;5.739;;5.102;4.236;;;;;;
84733;SPS30;74957;48.082;17.260;2024-02-21T04:40:53;6.946;;6.175;4.789;;;;;;
84733;SPS30;74957;48.082;17.260;2024-02-21T04:45:52;5.355;;4.76;4.067;;;;;;
84733;SPS30;74957;48.082;17.260;2024-02-21T04:50:51;6.482;;5.762;5.416;;;;;;
84733;SPS30;74957;48.082;17.260;2024-02-21T04:55:51;4.964;;4.413;4.067;;;;;;
84733;SPS30;74957;48.082;17.260;2024-02-21T05:00:52;5.257;;4.673;4.5;;;;;;
84733;SPS30;74957;48.082;17.260;2024-02-21T05:05:51;5.967;;5.304;4.958;;;;;;
84733;SPS30;74957;48.082;17.260;2024-02-21T05:10:52;13.184;;4.996;3.61;;;;;;
84733;SPS30;74957;48.082;17.260;2024-02-21T05:16:09;3.768;;3.35;2.311;;;;;;
84733;SPS30;74957;48.082;17.260;2024-02-21T05:20:56;5.789;;5.146;4.453;;;;;;
84733;SPS30;74957;48.082;17.260;2024-02-21T05:25:54;5.013;;4.456;3.417;;;;;;
84733;SPS30;74957;48.082;17.260;2024-02-21T05:30:54;5.506;;4.895;4.549;;;;;;
84733;SPS30;74957;48.082;17.260;2024-02-21T05:35:56;7.012;;6.233;5.367;;;;;;
84733;SPS30;74957;48.082;17.260;2024-02-21T05:40:55;5.907;;5.251;5.078;;;;;;
84733;SPS30;74957;48.082;17.260;2024-02-21T05:45:53;4.521;;4.019;3.153;;;;;;
84733;SPS30;74957;48.082;17.260;2024-02-21T05:50:54;6.688;;5.945;5.079;;;;;;
84733;SPS30;74957;48.082;17.260;2024-02-21T05:55:57;3.746;;3.33;2.984;;;;;;
84733;SPS30;74957;48.082;17.260;2024-02-21T06:00:58;4.933;;4.385;4.212;;;;;;
84733;SPS30;74957;48.082;17.260;2024-02-21T06:06:01;5.133;;4.563;4.044;;;;;;
84733;SPS30;74957;48.082;17.260;2024-02-21T06:10:54;4.093;;3.639;3.466;;;;;;
84733;SPS30;74957;48.082;17.260;2024-02-21T06:15:55;4.498;;3.999;2.96;;;;;;
84733;SPS30;74957;48.082;17.260;2024-02-21T06:20:56;6.817;;6.06;5.367;;;;;;
84733;SPS30;74957;48.082;17.260;2024-02-21T06:25:56;6.027;;5.358;3.972;;;;;;
84733;SPS30;74957;48.082;17.260;2024-02-21T06:31:03;6.909;;6.142;5.103;;;;;;
84733;SPS30;74957;48.082;17.260;2024-02-21T06:35:54;6.226;;5.535;4.669;;;;;;
84733;SPS30;74957;48.082;17.260;2024-02-21T06:40:57;6.768;;6.016;5.15;;;;;;
84733;SPS30;74957;48.082;17.260;2024-02-21T06:45:58;5.224;;4.644;3.778;;;;;;
84733;SPS30;74957;48.082;17.260;2024-02-21T06:50:55;19.402;;5.756;4.717;;;;;;
84733;SPS30;74957;48.082;17.260;2024-02-21T06:55:55;4.423;;3.932;3.586;;;;;;
84733;SPS30;74957;48.082;17.260;2024-02-21T07:00:57;7.375;;6.556;6.21;;;;;;
84733;SPS30;74957;48.082;17.260;2024-02-21T07:05:58;3.876;;3.446;3.273;;;;;;
84733;SPS30;74957;48.082;17.260;2024-02-21T07:10:58;11.188;;4.365;4.019;;;;;;
84733;SPS30;74957;48.082;17.260;2024-02-21T07:15:57;3.866;;3.437;2.744;;;;;;
84733;SPS30;74957;48.082;17.260;2024-02-21T07:21:01;5.204;;4.626;4.453;;;;;;
84733;SPS30;74957;48.082;17.260;2024-02-21T07:26:03;5.289;;4.702;3.489;;;;;;
84733;SPS30;74957;48.082;17.260;2024-02-21T07:35:59;10.317;;3.494;3.321;;;;;;
84733;SPS30;74957;48.082;17.260;2024-02-21T07:41:01;5.339;;4.746;4.573;;;;;;
84733;SPS30;74957;48.082;17.260;2024-02-21T07:46:00;6.053;;5.381;3.995;;;;;;
84733;SPS30;74957;48.082;17.260;2024-02-21T07:55:58;5.176;;4.601;4.428;;;;;;
84733;SPS30;74957;48.082;17.260;2024-02-21T08:01:08;4.179;;3.715;3.369;;;;;;
84733;SPS30;74957;48.082;17.260;2024-02-21T08:05:57;3.741;;3.326;3.153;;;;;;
84733;SPS30;74957;48.082;17.260;2024-02-21T08:15:59;4.874;;4.333;4.333;;;;;;
84733;SPS30;74957;48.082;17.260;2024-02-21T08:30:57;5.782;;5.14;4.621;;;;;;
84733;SPS30;74957;48.082;17.260;2024-02-21T08:35:56;4.883;;4.341;3.995;;;;;;
84733;SPS30;74957;48.082;17.260;2024-02-21T08:41:01;4.136;;3.677;2.984;;;;;;
84733;SPS30;74957;48.082;17.260;2024-02-21T08:45:58;8.156;;7.25;5.344;;;;;;
84733;SPS30;74957;48.082;17.260;2024-02-21T08:50:59;7.369;;6.551;6.378;;;;;;
84733;SPS30;74957;48.082;17.260;2024-02-21T08:55:58;2.306;;2.05;1.877;;;;;;
84733;SPS30;74957;48.082;17.260;2024-02-21T09:01:03;4.353;;3.87;3.177;;;;;;
84733;SPS30;74957;48.082;17.260;2024-02-21T09:06:04;4.119;;3.662;2.623;;;;;;
84733;SPS30;74957;48.082;17.260;2024-02-21T09:11:02;11.513;;3.325;2.286;;;;;;
84733;SPS30;74957;48.082;17.260;2024-02-21T09:16:12;3.412;;3.033;3.033;;;;;;
84733;SPS30;74957;48.082;17.260;2024-02-21T09:21:08;4.0;;3.556;1.997;;;;;;
84733;SPS30;74957;48.082;17.260;2024-02-21T09:26:09;3.849;;3.422;3.249;;;;;;
84733;SPS30;74957;48.082;17.260;2024-02-21T09:31:19;4.266;;3.792;3.273;;;;;;
84733;SPS30;74957;48.082;17.260;2024-02-21T09:36:02;2.192;;1.949;1.083;;;;;;
84733;SPS30;74957;48.082;17.260;2024-02-21T09:41:06;3.502;;3.113;2.767;;;;;;
84733;SPS30;74957;48.082;17.260;2024-02-21T09:46:13;3.085;;2.743;1.877;;;;;;
84733;SPS30;74957;48.082;17.260;2024-02-21T09:51:05;2.923;;2.599;1.733;;;;;;
84733;SPS30;74957;48.082;17.260;2024-02-21T09:56:05;4.021;;3.575;3.056;;;;;;
84733;SPS30;74957;48.082;17.260;2024-02-21T10:01:04;3.432;;3.051;2.358;;;;;;
84733;SPS30;74957;48.082;17.260;2024-02-21T10:06:01;2.543;;2.261;1.395;;;;;;
84733;SPS30;74957;48.082;17.260;2024-02-21T10:11:06;2.571;;2.286;2.286;;;;;;
84733;SPS30;74957;48.082;17.260;2024-02-21T10:16:03;2.766;;2.459;2.286;;;;;;
84733;SPS30;74957;48.082;17.260;2024-02-21T10:21:02;1.786;;1.588;1.588;;;;;;
84733;SPS30;74957;48.082;17.260;2024-02-21T10:26:04;2.635;;2.343;1.997;;;;;;
84733;SPS30;74957;48.082;17.260;2024-02-21T10:31:00;3.546;;3.152;2.286;;;;;;
84733;SPS30;74957;48.082;17.260;2024-02-21T10:36:09;3.827;;3.402;3.056;;;;;;
84733;SPS30;74957;48.082;17.260;2024-02-21T10:41:02;2.306;;2.05;1.877;;;;;;
84733;SPS30;74957;48.082;17.260;2024-02-21T10:46:09;3.064;;2.724;2.551;;;;;;
84733;SPS30;74957;48.082;17.260;2024-02-21T10:51:01;2.144;;1.906;1.733;;;;;;
84733;SPS30;74957;48.082;17.260;2024-02-21T10:55:58;3.709;;3.297;2.431;;;;;;
84733;SPS30;74957;48.082;17.260;2024-02-21T11:01:01;1.819;;1.617;1.444;;;;;;
84733;SPS30;74957;48.082;17.260;2024-02-21T11:05:58;2.826;;2.512;2.166;;;;;;
84733;SPS30;74957;48.082;17.260;2024-02-21T11:10:58;1.624;;1.444;1.444;;;;;;
84733;SPS30;74957;48.082;17.260;2024-02-21T11:16:06;2.939;;2.613;2.094;;;;;;
84733;SPS30;74957;48.082;17.260;2024-02-21T11:21:02;3.476;;3.09;2.744;;;;;;
84733;SPS30;74957;48.082;17.260;2024-02-21T11:26:07;2.274;;2.022;2.022;;;;;;
84733;SPS30;74957;48.082;17.260;2024-02-21T11:31:08;3.94;;3.503;2.984;;;;;;
84733;SPS30;74957;48.082;17.260;2024-02-21T11:36:02;3.303;;2.936;2.936;;;;;;
84733;SPS30;74957;48.082;17.260;2024-02-21T11:41:07;3.222;;2.864;2.864;;;;;;
84733;SPS30;74957;48.082;17.260;2024-02-21T11:46:09;3.232;;2.873;1.66;;;;;;
84733;SPS30;74957;48.082;17.260;2024-02-21T11:51:02;6.855;;6.094;5.055;;;;;;
84733;SPS30;74957;48.082;17.260;2024-02-21T11:56:04;3.67;;3.263;2.744;;;;;;
84733;SPS30;74957;48.082;17.260;2024-02-21T12:01:02;2.084;;1.853;1.853;;;;;;
84733;SPS30;74957;48.082;17.260;2024-02-21T12:06:05;3.161;;2.81;2.117;;;;;;
84733;SPS30;74957;48.082;17.260;2024-02-21T12:11:02;3.703;;3.292;2.599;;;;;;
84733;SPS30;74957;48.082;17.260;2024-02-21T12:16:06;3.161;;2.81;2.117;;;;;;
84733;SPS30;74957;48.082;17.260;2024-02-21T12:21:04;3.822;;3.398;3.225;;;;;;
84733;SPS30;74957;48.082;17.260;2024-02-21T12:26:02;3.253;;2.892;2.719;;;;;;
84733;SPS30;74957;48.082;17.260;2024-02-21T12:31:02;3.682;;3.273;3.273;;;;;;
84733;SPS30;74957;48.082;17.260;2024-02-21T12:36:03;4.439;;3.946;3.08;;;;;;
84733;SPS30;74957;48.082;17.260;2024-02-21T12:40:57;3.519;;3.128;2.262;;;;;;
84733;SPS30;74957;48.082;17.260;2024-02-21T12:46:08;4.115;;3.658;2.792;;;;;;
84733;SPS30;74957;48.082;17.260;2024-02-21T12:50:57;2.993;;2.661;2.142;;;;;;
84733;SPS30;74957;48.082;17.260;2024-02-21T12:55:59;3.638;;3.234;2.888;;;;;;
84733;SPS30;74957;48.082;17.260;2024-02-21T13:01:01;2.175;;1.934;2.022;;;;;;
84733;SPS30;74957;48.082;17.260;2024-02-21T13:05:59;4.737;;4.211;3.345;;;;;;
84733;SPS30;74957;48.082;17.260;2024-02-21T13:11:00;5.956;;5.295;3.562;;;;;;
84733;SPS30;74957;48.082;17.260;2024-02-21T13:16:03;2.608;;2.319;1.973;;;;;;
84733;SPS30;74957;48.082;17.260;2024-02-21T13:21:00;2.056;;1.828;1.828;;;;;;
84733;SPS30;74957;48.082;17.260;2024-02-21T13:26:02;10.788;;5.102;4.236;;;;;;
84733;SPS30;74957;48.082;17.260;2024-02-21T13:31:03;3.519;;3.128;3.128;;;;;;
84733;SPS30;74957;48.082;17.260;2024-02-21T13:36:03;2.869;;2.551;2.551;;;;;;
84733;SPS30;74957;48.082;17.260;2024-02-21T13:41:00;4.488;;3.99;3.297;;;;;;
84733;SPS30;74957;48.082;17.260;2024-02-21T13:46:07;3.168;;2.816;2.816;;;;;;
84733;SPS30;74957;48.082;17.260;2024-02-21T13:51:05;3.627;;3.224;2.358;;;;;;
84733;SPS30;74957;48.082;17.260;2024-02-21T13:56:02;6.513;;5.79;5.271;;;;;;
84733;SPS30;74957;48.082;17.260;2024-02-21T14:01:06;5.143;;4.572;3.706;;;;;;
84733;SPS30;74957;48.082;17.260;2024-02-21T14:06:01;3.524;;3.133;2.96;;;;;;
84733;SPS30;74957;48.082;17.260;2024-02-21T14:11:04;1.949;;1.733;1.733;;;;;;
84733;SPS30;74957;48.082;17.260;2024-02-21T14:16:08;3.687;;3.278;3.105;;;;;;
84733;SPS30;74957;48.082;17.260;2024-02-21T14:21:03;10.337;;3.514;3.514;;;;;;
84733;SPS30;74957;48.082;17.260;2024-02-21T14:25:59;3.589;;3.191;2.672;;;;;;
84733;SPS30;74957;48.082;17.260;2024-02-21T14:30:56;3.719;;3.306;2.96;;;;;;
84733;SPS30;74957;48.082;17.260;2024-02-21T14:35:57;2.647;;2.353;1.66;;;;;;
84733;SPS30;74957;48.082;17.260;2024-02-21T14:40:56;2.706;;2.406;2.406;;;;;;
84733;SPS30;74957;48.082;17.260;2024-02-21T14:45:56;3.189;;2.835;2.142;;;;;;
84733;SPS30;74957;48.082;17.260;2024-02-21T14:51:01;3.834;;3.408;2.022;;;;;;
84733;SPS30;74957;48.082;17.260;2024-02-21T14:56:00;2.668;;2.372;1.853;;;;;;
84733;SPS30;74957;48.082;17.260;2024-02-21T15:01:03;3.351;;2.979;2.286;;;;;;
84733;SPS30;74957;48.082;17.260;2024-02-21T15:06:00;3.741;;3.326;3.153;;;;;;
84733;SPS30;74957;48.082;17.260;2024-02-21T15:11:01;2.604;;2.315;2.142;;;;;;
84733;SPS30;74957;48.082;17.260;2024-02-21T15:16:03;3.547;;3.153;3.153;;;;;;
84733;SPS30;74957;48.082;17.260;2024-02-21T15:21:02;2.599;;2.311;2.311;;;;;;
84733;SPS30;74957;48.082;17.260;2024-02-21T15:26:03;3.388;;3.012;2.839;;;;;;
84733;SPS30;74957;48.082;17.260;2024-02-21T15:31:05;1.954;;1.737;1.564;;;;;;
84733;SPS30;74957;48.082;17.260;2024-02-21T15:35:59;2.441;;2.17;1.997;;;;;;
84733;SPS30;74957;48.082;17.260;2024-02-21T15:40:58;1.137;;1.011;1.011;;;;;;
84733;SPS30;74957;48.082;17.260;2024-02-21T15:46:03;2.668;;2.372;1.853;;;;;;
84733;SPS30;74957;48.082;17.260;2024-02-21T15:51:00;2.761;;2.455;2.455;;;;;;
84733;SPS30;74957;48.082;17.260;2024-02-21T15:56:00;4.142;;3.682;2.816;;;;;;
84733;SPS30;74957;48.082;17.260;2024-02-21T16:00:53;10.326;;3.503;2.117;;;;;;
84733;SPS30;74957;48.082;17.260;2024-02-21T16:05:53;4.363;;3.879;3.706;;;;;;
84733;SPS30;74957;48.082;17.260;2024-02-21T16:10:59;2.972;;2.642;1.949;;;;;;
84733;SPS30;74957;48.082;17.260;2024-02-21T16:16:01;4.873;;4.332;2.599;;;;;;
84733;SPS30;74957;48.082;17.260;2024-02-21T16:20:56;6.73;;5.983;4.597;;;;;;
84733;SPS30;74957;48.082;17.260;2024-02-21T16:25:56;6.255;;5.56;4.694;;;;;;
84733;SPS30;74957;48.082;17.260;2024-02-21T16:30:59;6.942;;6.171;4.958;;;;;;
84733;SPS30;74957;48.082;17.260;2024-02-21T16:36:00;5.641;;5.015;4.669;;;;;;
84733;SPS30;74957;48.082;17.260;2024-02-21T16:40:59;5.208;;4.63;3.417;;;;;;
84733;SPS30;74957;48.082;17.260;2024-02-21T16:45:59;12.666;;6.98;6.114;;;;;;
84733;SPS30;74957;48.082;17.260;2024-02-21T16:50:58;3.412;;3.033;3.033;;;;;;
84733;SPS30;74957;48.082;17.260;2024-02-21T16:56:00;6.297;;5.598;4.212;;;;;;
84733;SPS30;74957;48.082;17.260;2024-02-21T17:00:58;9.205;;8.183;6.45;;;;;;
84733;SPS30;74957;48.082;17.260;2024-02-21T17:06:02;6.773;;6.021;4.982;;;;;;
84733;SPS30;74957;48.082;17.260;2024-02-21T17:10:57;6.59;;5.858;4.645;;;;;;
84733;SPS30;74957;48.082;17.260;2024-02-21T17:16:00;5.376;;4.779;4.26;;;;;;
84733;SPS30;74957;48.082;17.260;2024-02-21T17:21:04;5.907;;5.251;4.212;;;;;;
84733;SPS30;74957;48.082;17.260;2024-02-21T17:25:58;9.097;;8.087;7.221;;;;;;
84733;SPS30;74957;48.082;17.260;2024-02-21T17:30:51;6.276;;5.579;3.153;;;;;;
84733;SPS30;74957;48.082;17.260;2024-02-21T17:35:51;6.231;;5.539;4.5;;;;;;
84733;SPS30;74957;48.082;17.260;2024-02-21T17:40:53;9.952;;8.847;7.461;;;;;;
84733;SPS30;74957;48.082;17.260;2024-02-21T17:45:59;9.85;;8.756;8.063;;;;;;
84733;SPS30;74957;48.082;17.260;2024-02-21T17:50:52;7.819;;6.951;6.258;;;;;;
84733;SPS30;74957;48.082;17.260;2024-02-21T17:55:55;10.008;;8.896;7.51;;;;;;
84733;SPS30;74957;48.082;17.260;2024-02-21T18:00:53;8.908;;7.919;6.089;;;;;;
84733;SPS30;74957;48.082;17.260;2024-02-21T18:05:53;12.634;;11.231;9.845;;;;;;
84733;SPS30;74957;48.082;17.260;2024-02-21T18:10:51;11.545;;10.263;7.317;;;;;;
84733;SPS30;74957;48.082;17.260;2024-02-21T18:15:51;10.252;;9.113;7.727;;;;;;
84733;SPS30;74957;48.082;17.260;2024-02-21T18:20:51;9.059;;8.053;7.534;;;;;;
84733;SPS30;74957;48.082;17.260;2024-02-21T18:25:52;10.614;;9.435;8.569;;;;;;
84733;SPS30;74957;48.082;17.260;2024-02-21T18:30:51;14.253;;12.67;10.591;;;;;;
84733;SPS30;74957;48.082;17.260;2024-02-21T18:35:54;10.229;;9.093;8.4;;;;;;
84733;SPS30;74957;48.082;17.260;2024-02-21T18:40:52;10.533;;9.363;8.497;;;;;;
84733;SPS30;74957;48.082;17.260;2024-02-21T18:45:52;10.728;;9.536;7.63;;;;;;
84733;SPS30;74957;48.082;17.260;2024-02-21T18:50:56;12.904;;11.471;10.952;;;;;;
84733;SPS30;74957;48.082;17.260;2024-02-21T18:55:52;9.573;;8.51;7.991;;;;;;
84733;SPS30;74957;48.082;17.260;2024-02-21T19:00:52;7.457;;6.629;5.416;;;;;;
84733;SPS30;74957;48.082;17.260;2024-02-21T19:05:52;12.369;;10.995;10.302;;;;;;
84733;SPS30;74957;48.082;17.260;2024-02-21T19:10:55;14.655;;13.027;11.121;;;;;;
84733;SPS30;74957;48.082;17.260;2024-02-21T19:15:51;11.107;;9.873;7.967;;;;;;
84733;SPS30;74957;48.082;17.260;2024-02-21T19:20:56;11.269;;10.017;8.978;;;;;;
84733;SPS30;74957;48.082;17.260;2024-02-21T19:26:00;10.89;;9.68;8.641;;;;;;
84733;SPS30;74957;48.082;17.260;2024-02-21T19:31:00;11.876;;10.557;10.038;;;;;;
84733;SPS30;74957;48.082;17.260;2024-02-21T19:35:59;9.921;;8.819;7.606;;;;;;
84733;SPS30;74957;48.082;17.260;2024-02-21T19:40:57;15.413;;13.701;11.795;;;;;;
84733;SPS30;74957;48.082;17.260;2024-02-21T19:46:11;8.501;;7.557;6.691;;;;;;
84733;SPS30;74957;48.082;17.260;2024-02-21T19:50:57;12.433;;11.052;10.013;;;;;;
84733;SPS30;74957;48.082;17.260;2024-02-21T19:55:55;13.528;;12.025;9.772;;;;;;
84733;SPS30;74957;48.082;17.260;2024-02-21T20:00:54;14.887;;13.233;11.674;;;;;;
84733;SPS30;74957;48.082;17.260;2024-02-21T20:05:58;10.219;;9.084;7.871;;;;;;
84733;SPS30;74957;48.082;17.260;2024-02-21T20:10:57;9.958;;8.852;7.293;;;;;;
84733;SPS30;74957;48.082;17.260;2024-02-21T20:15:58;13.143;;11.683;9.604;;;;;;
84733;SPS30;74957;48.082;17.260;2024-02-21T20:20:58;11.531;;10.25;9.557;;;;;;
84733;SPS30;74957;48.082;17.260;2024-02-21T20:25:55;14.909;;13.253;12.734;;;;;;
84733;SPS30;74957;48.082;17.260;2024-02-21T20:31:04;11.795;;10.485;9.099;;;;;;
84733;SPS30;74957;48.082;17.260;2024-02-21T20:35:56;16.718;;14.861;11.915;;;;;;
84733;SPS30;74957;48.082;17.260;2024-02-21T20:40:52;13.891;;12.348;10.615;;;;;;
84733;SPS30;74957;48.082;17.260;2024-02-21T20:45:50;15.467;;13.749;11.843;;;;;;
84733;SPS30;74957;48.082;17.260;2024-02-21T20:50:52;13.354;;11.871;10.832;;;;;;
84733;SPS30;74957;48.082;17.260;2024-02-21T20:55:53;12.673;;11.265;10.399;;;;;;
84733;SPS30;74957;48.082;17.260;2024-02-21T21:00:54;16.903;;15.025;12.252;;;;;;
84733;SPS30;74957;48.082;17.260;2024-02-21T21:05:54;18.642;;16.571;13.625;;;;;;
84733;SPS30;74957;48.082;17.260;2024-02-21T21:10:59;14.091;;12.526;9.58;;;;;;
84733;SPS30;74957;48.082;17.260;2024-02-21T21:15:57;12.603;;11.203;9.99;;;;;;
84733;SPS30;74957;48.082;17.260;2024-02-21T21:20:51;11.535;;10.254;8.521;;;;;;
84733;SPS30;74957;48.082;17.260;2024-02-21T21:26:00;12.975;;11.534;9.628;;;;;;
84733;SPS30;74957;48.082;17.260;2024-02-21T21:30:59;14.553;;12.936;11.723;;;;;;
84733;SPS30;74957;48.082;17.260;2024-02-21T21:35:53;18.121;;16.108;13.335;;;;;;
84733;SPS30;74957;48.082;17.260;2024-02-21T21:40:53;16.41;;14.794;12.541;;;;;;
84733;SPS30;74957;48.082;17.260;2024-02-21T21:46:09;13.924;;12.377;12.204;;;;;;
84733;SPS30;74957;48.082;17.260;2024-02-21T21:50:57;12.375;;11.0;10.134;;;;;;
84733;SPS30;74957;48.082;17.260;2024-02-21T21:55:54;14.455;;12.849;11.29;;;;;;
84733;SPS30;74957;48.082;17.260;2024-02-21T22:00:56;10.797;;9.598;8.039;;;;;;
84733;SPS30;74957;48.082;17.260;2024-02-21T22:05:57;13.268;;11.794;10.061;;;;;;
84733;SPS30;74957;48.082;17.260;2024-02-21T22:10:51;18.225;;16.2;14.467;;;;;;
84733;SPS30;74957;48.082;17.260;2024-02-21T22:15:55;16.535;;14.698;12.445;;;;;;
84733;SPS30;74957;48.082;17.260;2024-02-21T22:20:53;20.065;;17.836;15.237;;;;;;
84733;SPS30;74957;48.082;17.260;2024-02-21T22:25:57;17.228;;15.314;13.408;;;;;;
84733;SPS30;74957;48.082;17.260;2024-02-21T22:30:53;16.795;;14.929;13.023;;;;;;
84733;SPS30;74957;48.082;17.260;2024-02-21T22:35:50;18.592;;16.527;14.274;;;;;;
84733;SPS30;74957;48.082;17.260;2024-02-21T22:40:57;12.196;;10.841;9.628;;;;;;
84733;SPS30;74957;48.082;17.260;2024-02-21T22:45:58;14.145;;12.574;10.495;;;;;;
84733;SPS30;74957;48.082;17.260;2024-02-21T22:50:59;13.263;;11.79;11.097;;;;;;
84733;SPS30;74957;48.082;17.260;2024-02-21T22:55:58;13.437;;11.944;10.038;;;;;;
84733;SPS30;74957;48.082;17.260;2024-02-21T23:01:11;22.045;;15.222;13.143;;;;;;
84733;SPS30;74957;48.082;17.260;2024-02-21T23:05:55;11.383;;10.119;8.906;;;;;;
84733;SPS30;74957;48.082;17.260;2024-02-21T23:10:57;16.681;;14.828;13.095;;;;;;
84733;SPS30;74957;48.082;17.260;2024-02-21T23:15:59;12.157;;10.807;9.941;;;;;;
84733;SPS30;74957;48.082;17.260;2024-02-21T23:20:54;12.928;;11.492;10.279;;;;;;
84733;SPS30;74957;48.082;17.260;2024-02-21T23:25:56;10.744;;9.551;8.858;;;;;;
84733;SPS30;74957;48.082;17.260;2024-02-21T23:31:25;16.113;;14.323;12.59;;;;;;
84733;SPS30;74957;48.082;17.260;2024-02-21T23:35:57;15.094;;13.417;11.338;;;;;;
84733;SPS30;74957;48.082;17.260;2024-02-21T23:40:57;12.267;;10.904;10.038;;;;;;
84733;SPS30;74957;48.082;17.260;2024-02-21T23:46:04;16.474;;14.644;12.565;;;;;;
84733;SPS30;74957;48.082;17.260;2024-02-21T23:50:50;15.586;;13.855;12.469;;;;;;
84733;SPS30;74957;48.082;17.260;2024-02-21T23:55:49;22.431;;15.608;14.154;;;;;;
